Chrisanthi — SX7108 — position and weather

sailwx.info

Track history (hours):
 
Tides and Currents Weather Stations Pressure Air Temp Water Temp Dewpoint Dewpoint Depression Visibility Wind Speed Wind Dir Waves Ship Positions

Chrisanthi

Last reported at 2017-Feb-17 07:09 UTC. Time now 2017-Feb-21 19:04 UTC.
Position N 37°10' E 025°48'.

Length 56 m; draft 3.9 m.

Type: Ship (hazmat cat A). MMSI: 237009100.

Date/timePositionNaut miles runAvg speedWind from/ knotsBaromVisibWave heightAir tempDewpointWater temp
2017-Feb-17 07:09N 37°10' E 025°48'16 9.5
2017-Feb-17 05:30N 37°14' E 025°29'910.0
2017-Feb-17 04:33N 37°17' E 025°17'78 9.8
2017-Feb-16 20:33N 37°40' E 023°43'1010.1
2017-Feb-16 19:33N 37°48' E 023°36'1010.1
2017-Feb-16 18:33N 37°50' E 023°24'1010.3
2017-Feb-16 17:33N 37°53' E 023°11'5 4.4
2017-Feb-16 16:27N 37°55' E 023°05'0 0.0
2017-Feb-16 15:33N 37°55' E 023°05'0 0.0
2017-Feb-16 14:32N 37°55' E 023°05'0 0.0
2017-Feb-16 13:33N 37°55' E 023°05'0 0.0
2017-Feb-16 12:33N 37°55' E 023°05'0 0.0
2017-Feb-16 11:33N 37°55' E 023°05'0 0.0
2017-Feb-16 10:33N 37°55' E 023°05'0 0.0
2017-Feb-16 09:33N 37°55' E 023°05'0 0.0
2017-Feb-16 08:33N 37°55' E 023°05'0 0.0
2017-Feb-16 07:32N 37°55' E 023°05'0 0.0
2017-Feb-16 06:33N 37°55' E 023°05'0 0.0
2017-Feb-16 05:34N 37°55' E 023°05'0 0.0
2017-Feb-16 04:33N 37°55' E 023°05'0 0.0
2017-Feb-16 03:33N 37°55' E 023°05'0 0.0
2017-Feb-16 02:34N 37°55' E 023°05'0 0.0
2017-Feb-16 01:34N 37°55' E 023°05'0 0.0
2017-Feb-16 00:34N 37°55' E 023°05'0 0.0
2017-Feb-15 23:33N 37°55' E 023°05'7 7.1
2017-Feb-15 22:33N 37°50' E 023°12'1010.4
2017-Feb-15 21:33N 37°41' E 023°18'1010.0
2017-Feb-15 20:33N 37°36' E 023°29'  
2017-Feb-13 05:05N 36°59' E 025°18'510.4
2017-Feb-13 04:34N 37°04' E 025°20'0 0.0
2017-Feb-13 03:34N 37°04' E 025°20'0 0.0
2017-Feb-13 02:33N 37°04' E 025°20'0 0.0
2017-Feb-13 01:33N 37°04' E 025°20'0 0.0
2017-Feb-13 00:33N 37°04' E 025°21'0 0.0
2017-Feb-12 23:33N 37°04' E 025°21'0 0.0
2017-Feb-12 22:33N 37°04' E 025°20'1 1.3
2017-Feb-12 21:33N 37°06' E 025°20'2 2.1
2017-Feb-12 20:33N 37°06' E 025°22'0 0.0
2017-Feb-12 19:33N 37°06' E 025°22'0 0.0
2017-Feb-12 18:34N 37°06' E 025°22'0 0.0
2017-Feb-12 17:33N 37°06' E 025°22'0 0.1
2017-Feb-12 16:33N 37°06' E 025°22'8 8.4
2017-Feb-12 15:33N 37°13' E 025°16'7 0.4
2017-Feb-11 23:20N 37°15' E 025°08'7 8.8
2017-Feb-11 22:33N 37°20' E 025°15'9 8.9
2017-Feb-11 21:33N 37°28' E 025°19'0 0.2
2017-Feb-11 20:33N 37°28' E 025°19'0 0.0
2017-Feb-11 19:33N 37°28' E 025°19'2 2.1
2017-Feb-11 18:33N 37°29' E 025°18'  
2017-Feb-08 14:33N 37°29' E 023°40'1010.1
2017-Feb-08 13:33N 37°36' E 023°30'1010.2
2017-Feb-08 12:34N 37°40' E 023°19'1410.1
2017-Feb-08 11:13N 37°52' E 023°09'5 6.9
2017-Feb-08 10:34N 37°55' E 023°05'0 0.0
2017-Feb-08 09:31N 37°55' E 023°05'0 0.0
2017-Feb-08 08:29N 37°55' E 023°05'0 0.0
2017-Feb-08 07:33N 37°55' E 023°05'0 0.0
2017-Feb-08 06:33N 37°55' E 023°05'0 0.0
2017-Feb-08 05:32N 37°55' E 023°05'0 0.0
2017-Feb-08 04:33N 37°55' E 023°05'0 0.0
2017-Feb-08 03:34N 37°55' E 023°05'0 0.0
2017-Feb-08 02:32N 37°55' E 023°05'1 0.3
2017-Feb-08 00:06N 37°55' E 023°06'710.4
2017-Feb-07 23:27N 37°53' E 023°14'910.4
2017-Feb-07 22:33N 37°51' E 023°26'1010.0
2017-Feb-07 21:34N 37°50' E 023°38'10 9.9
2017-Feb-07 20:33N 37°42' E 023°44'52 9.8
2017-Feb-07 15:17N 37°21' E 024°44'810.5
2017-Feb-07 14:33N 37°17' E 024°52'9 9.4
2017-Feb-07 13:34N 37°11' E 025°01'  
Track history (hours):
 
Tides and Currents Weather Stations Pressure Air Temp Water Temp Dewpoint Dewpoint Depression Visibility Wind Speed Wind Dir Waves Ship Positions

Chrisanthi

Last reported at 2017-Feb-17 07:09 UTC. Time now 2017-Feb-21 19:04 UTC.
Position N 37°10' E 025°48'.

Length 56 m; draft 3.9 m.

Type: Ship (hazmat cat A). MMSI: 237009100.

Date/timePositionNaut miles runAvg speedWind from/ knotsBaromVisibWave heightAir tempDewpointWater temp
2017-Feb-17 07:09N 37°10' E 025°48'16 9.5
2017-Feb-17 05:30N 37°14' E 025°29'910.0
2017-Feb-17 04:33N 37°17' E 025°17'78 9.8
2017-Feb-16 20:33N 37°40' E 023°43'1010.1
2017-Feb-16 19:33N 37°48' E 023°36'1010.1
2017-Feb-16 18:33N 37°50' E 023°24'1010.3
2017-Feb-16 17:33N 37°53' E 023°11'5 4.4
2017-Feb-16 16:27N 37°55' E 023°05'0 0.0
2017-Feb-16 15:33N 37°55' E 023°05'0 0.0
2017-Feb-16 14:32N 37°55' E 023°05'0 0.0
2017-Feb-16 13:33N 37°55' E 023°05'0 0.0
2017-Feb-16 12:33N 37°55' E 023°05'0 0.0
2017-Feb-16 11:33N 37°55' E 023°05'0 0.0
2017-Feb-16 10:33N 37°55' E 023°05'0 0.0
2017-Feb-16 09:33N 37°55' E 023°05'0 0.0
2017-Feb-16 08:33N 37°55' E 023°05'0 0.0
2017-Feb-16 07:32N 37°55' E 023°05'0 0.0
2017-Feb-16 06:33N 37°55' E 023°05'0 0.0
2017-Feb-16 05:34N 37°55' E 023°05'0 0.0
2017-Feb-16 04:33N 37°55' E 023°05'0 0.0
2017-Feb-16 03:33N 37°55' E 023°05'0 0.0
2017-Feb-16 02:34N 37°55' E 023°05'0 0.0
2017-Feb-16 01:34N 37°55' E 023°05'0 0.0
2017-Feb-16 00:34N 37°55' E 023°05'0 0.0
2017-Feb-15 23:33N 37°55' E 023°05'7 7.1
2017-Feb-15 22:33N 37°50' E 023°12'1010.4
2017-Feb-15 21:33N 37°41' E 023°18'1010.0
2017-Feb-15 20:33N 37°36' E 023°29'  
2017-Feb-13 05:05N 36°59' E 025°18'510.4
2017-Feb-13 04:34N 37°04' E 025°20'0 0.0
2017-Feb-13 03:34N 37°04' E 025°20'0 0.0
2017-Feb-13 02:33N 37°04' E 025°20'0 0.0
2017-Feb-13 01:33N 37°04' E 025°20'0 0.0
2017-Feb-13 00:33N 37°04' E 025°21'0 0.0
2017-Feb-12 23:33N 37°04' E 025°21'0 0.0
2017-Feb-12 22:33N 37°04' E 025°20'1 1.3
2017-Feb-12 21:33N 37°06' E 025°20'2 2.1
2017-Feb-12 20:33N 37°06' E 025°22'0 0.0
2017-Feb-12 19:33N 37°06' E 025°22'0 0.0
2017-Feb-12 18:34N 37°06' E 025°22'0 0.0
2017-Feb-12 17:33N 37°06' E 025°22'0 0.1
2017-Feb-12 16:33N 37°06' E 025°22'8 8.4
2017-Feb-12 15:33N 37°13' E 025°16'7 0.4
2017-Feb-11 23:20N 37°15' E 025°08'7 8.8
2017-Feb-11 22:33N 37°20' E 025°15'9 8.9
2017-Feb-11 21:33N 37°28' E 025°19'0 0.2
2017-Feb-11 20:33N 37°28' E 025°19'0 0.0
2017-Feb-11 19:33N 37°28' E 025°19'2 2.1
2017-Feb-11 18:33N 37°29' E 025°18'  
2017-Feb-08 14:33N 37°29' E 023°40'1010.1
2017-Feb-08 13:33N 37°36' E 023°30'1010.2
2017-Feb-08 12:34N 37°40' E 023°19'1410.1
2017-Feb-08 11:13N 37°52' E 023°09'5 6.9
2017-Feb-08 10:34N 37°55' E 023°05'0 0.0
2017-Feb-08 09:31N 37°55' E 023°05'0 0.0
2017-Feb-08 08:29N 37°55' E 023°05'0 0.0
2017-Feb-08 07:33N 37°55' E 023°05'0 0.0
2017-Feb-08 06:33N 37°55' E 023°05'0 0.0
2017-Feb-08 05:32N 37°55' E 023°05'0 0.0
2017-Feb-08 04:33N 37°55' E 023°05'0 0.0
2017-Feb-08 03:34N 37°55' E 023°05'0 0.0
2017-Feb-08 02:32N 37°55' E 023°05'1 0.3
2017-Feb-08 00:06N 37°55' E 023°06'710.4
2017-Feb-07 23:27N 37°53' E 023°14'910.4
2017-Feb-07 22:33N 37°51' E 023°26'1010.0
2017-Feb-07 21:34N 37°50' E 023°38'10 9.9
2017-Feb-07 20:33N 37°42' E 023°44'52 9.8
2017-Feb-07 15:17N 37°21' E 024°44'810.5
2017-Feb-07 14:33N 37°17' E 024°52'9 9.4
2017-Feb-07 13:34N 37°11' E 025°01'  

Dump ship's entire track history